createdAt,value
2022-11-16T00:01:51.179Z,6.61
2022-11-16T00:04:56.079Z,6.62
2022-11-16T00:08:02.401Z,6.66
2022-11-16T00:11:08.809Z,6.70
2022-11-16T00:14:14.856Z,6.62
2022-11-16T00:17:20.089Z,6.58
2022-11-16T00:20:24.858Z,6.63
2022-11-16T00:23:31.066Z,6.56
2022-11-16T00:26:35.682Z,6.53
2022-11-16T00:29:40.806Z,6.58
2022-11-16T00:32:45.309Z,6.53
2022-11-16T00:35:50.209Z,6.57
2022-11-16T00:38:56.578Z,6.48
2022-11-16T00:42:01.657Z,6.51
2022-11-16T00:45:07.260Z,6.54
2022-11-16T00:48:14.552Z,6.65
2022-11-16T00:51:19.232Z,6.75
2022-11-16T00:54:25.628Z,6.70
2022-11-16T00:57:30.613Z,6.67
2022-11-16T01:00:35.489Z,6.63
2022-11-16T01:03:40.935Z,6.76
2022-11-16T01:06:46.643Z,6.62
2022-11-16T01:09:52.780Z,6.68
2022-11-16T01:12:56.843Z,6.78
2022-11-16T01:16:01.502Z,6.76
2022-11-16T01:19:07.220Z,6.79
2022-11-16T01:22:14.679Z,6.84
2022-11-16T01:25:21.734Z,6.82
2022-11-16T01:28:26.496Z,6.79
2022-11-16T01:31:32.201Z,6.81
2022-11-16T01:34:39.128Z,6.85
2022-11-16T01:37:55.026Z,6.84
2022-11-16T01:41:01.968Z,6.86
2022-11-16T01:44:56.333Z,6.68
2022-11-16T01:48:00.960Z,6.76
2022-11-16T01:51:10.228Z,6.89
2022-11-16T01:54:16.825Z,6.89
2022-11-16T01:57:41.421Z,6.86
2022-11-16T02:00:49.107Z,6.86
2022-11-16T02:04:20.127Z,6.78
2022-11-16T02:08:08.348Z,6.77
2022-11-16T02:11:35.523Z,6.68
2022-11-16T02:14:59.896Z,6.66
2022-11-16T02:18:17.345Z,6.68
2022-11-16T02:21:38.008Z,6.58
2022-11-16T02:24:50.170Z,6.49
2022-11-16T02:28:22.272Z,6.43
2022-11-16T02:31:32.232Z,6.47
2022-11-16T02:34:42.288Z,6.40
2022-11-16T02:37:51.933Z,6.37
2022-11-16T02:41:01.986Z,6.50
2022-11-16T02:44:13.464Z,6.55
2022-11-16T02:47:24.512Z,6.59
2022-11-16T02:50:31.604Z,6.50
2022-11-16T02:53:43.488Z,6.55
2022-11-16T02:56:56.138Z,6.57
2022-11-16T03:00:06.370Z,6.48
2022-11-16T03:03:29.687Z,6.55
2022-11-16T03:06:39.522Z,6.61
2022-11-16T03:09:47.347Z,6.42
2022-11-16T03:12:51.868Z,6.47
2022-11-16T03:15:58.059Z,6.57
2022-11-16T03:19:07.856Z,6.60
2022-11-16T03:22:15.881Z,6.56
2022-11-16T03:25:22.520Z,6.65
2022-11-16T03:28:37.045Z,6.61
2022-11-16T03:31:48.962Z,6.64
2022-11-16T03:35:03.226Z,6.57
2022-11-16T03:38:12.142Z,6.64
2022-11-16T03:41:22.133Z,6.50
2022-11-16T03:44:27.511Z,6.55
2022-11-16T03:47:32.747Z,6.43
2022-11-16T03:50:39.039Z,6.40
2022-11-16T03:53:44.165Z,6.35
2022-11-16T03:56:50.187Z,6.51
2022-11-16T03:59:55.065Z,6.48
2022-11-16T04:02:59.671Z,6.54
2022-11-16T04:06:24.478Z,6.59
2022-11-16T04:09:46.714Z,6.58
2022-11-16T04:13:05.506Z,6.42
2022-11-16T04:16:30.239Z,6.52
2022-11-16T04:19:57.929Z,6.52
2022-11-16T04:23:27.590Z,6.53
2022-11-16T04:26:53.012Z,6.56
2022-11-16T04:29:58.758Z,6.55
2022-11-16T04:33:22.360Z,6.60
2022-11-16T04:36:44.435Z,6.64
2022-11-16T04:39:51.715Z,6.58
2022-11-16T04:42:58.428Z,6.59
2022-11-16T04:46:23.232Z,6.49
2022-11-16T04:49:27.919Z,6.30
2022-11-16T04:52:35.440Z,6.49
2022-11-16T04:55:43.831Z,6.44
2022-11-16T04:58:49.135Z,6.46
2022-11-16T05:02:12.109Z,6.42
2022-11-16T05:05:28.474Z,6.46
2022-11-16T05:08:33.932Z,6.50
2022-11-16T05:11:40.518Z,6.47
2022-11-16T05:14:46.183Z,6.48
2022-11-16T05:17:54.888Z,6.48
2022-11-16T05:21:01.268Z,6.53
2022-11-16T05:24:30.906Z,6.50
2022-11-16T05:27:37.742Z,6.28
2022-11-16T05:30:47.253Z,6.33
2022-11-16T05:33:56.981Z,6.42
2022-11-16T05:37:02.654Z,6.45
2022-11-16T05:40:10.074Z,6.45
2022-11-16T05:43:23.169Z,6.36
2022-11-16T05:46:37.173Z,6.38
2022-11-16T05:49:42.845Z,6.47
2022-11-16T05:52:47.632Z,6.44
2022-11-16T05:55:53.892Z,6.38
2022-11-16T05:59:00.793Z,6.32
2022-11-16T06:02:05.634Z,6.23
2022-11-16T06:05:12.738Z,6.24
2022-11-16T06:08:17.727Z,6.31
2022-11-16T06:11:22.897Z,6.22
2022-11-16T06:14:29.134Z,6.29
2022-11-16T06:17:33.898Z,6.30
2022-11-16T06:20:41.060Z,6.18
2022-11-16T06:23:46.273Z,6.26
2022-11-16T06:26:51.476Z,6.27
2022-11-16T06:29:57.621Z,6.34
2022-11-16T06:33:02.556Z,6.24
2022-11-16T06:36:08.877Z,6.42
2022-11-16T06:39:15.052Z,6.36
2022-11-16T06:42:19.799Z,6.30
2022-11-16T06:45:26.386Z,6.08
2022-11-16T06:48:34.815Z,6.16
2022-11-16T06:51:43.611Z,6.04
2022-11-16T06:54:48.545Z,6.11
2022-11-16T06:57:53.789Z,6.12
2022-11-16T07:01:07.408Z,6.11
2022-11-16T07:04:14.498Z,6.10
2022-11-16T07:07:24.444Z,6.15
2022-11-16T07:10:31.424Z,6.20
2022-11-16T07:13:38.499Z,6.15
2022-11-16T07:16:45.890Z,6.10
2022-11-16T07:19:50.870Z,6.15
2022-11-16T07:23:11.388Z,6.10
2022-11-16T07:26:25.691Z,6.17
2022-11-16T07:29:55.528Z,6.17
2022-11-16T07:33:24.266Z,6.05
2022-11-16T07:36:52.097Z,6.11
2022-11-16T07:40:00.820Z,6.23
2022-11-16T07:43:06.922Z,6.31
2022-11-16T07:46:48.620Z,6.16
2022-11-16T07:50:00.248Z,6.08
2022-11-16T07:53:06.026Z,6.10
2022-11-16T07:56:14.309Z,5.98
2022-11-16T07:59:22.259Z,5.98
2022-11-16T08:02:27.876Z,5.98
2022-11-16T08:05:34.833Z,6.02
2022-11-16T08:08:40.124Z,5.97
2022-11-16T08:11:47.109Z,5.89
2022-11-16T08:14:52.429Z,5.87
2022-11-16T08:17:59.271Z,5.88
2022-11-16T08:21:08.330Z,5.94
2022-11-16T08:24:13.510Z,5.87
2022-11-16T08:27:20.731Z,5.75
2022-11-16T08:30:29.599Z,5.81
2022-11-16T08:33:34.582Z,5.83
2022-11-16T08:36:41.722Z,5.85
2022-11-16T08:39:47.051Z,5.96
2022-11-16T08:42:57.027Z,5.95
2022-11-16T08:46:02.329Z,5.98
2022-11-16T08:49:07.646Z,5.96
2022-11-16T08:52:16.959Z,5.91
2022-11-16T08:55:22.102Z,5.81
2022-11-16T08:58:26.920Z,5.99
2022-11-16T09:01:33.164Z,6.09
2022-11-16T09:04:38.180Z,5.96
2022-11-16T09:07:45.786Z,6.00
2022-11-16T09:10:50.634Z,5.85
2022-11-16T09:13:57.122Z,5.89
2022-11-16T09:17:02.008Z,5.85
2022-11-16T09:20:08.480Z,5.95
2022-11-16T09:23:23.836Z,5.80
2022-11-16T09:26:29.891Z,5.82
2022-11-16T09:29:34.936Z,5.72
2022-11-16T09:32:39.512Z,5.81
2022-11-16T09:35:44.390Z,5.75
2022-11-16T09:42:34.707Z,6.04
2022-11-16T09:45:46.469Z,5.94
2022-11-16T09:48:52.122Z,5.89
2022-11-16T09:52:00.883Z,6.01
2022-11-16T09:55:24.934Z,5.96
2022-11-16T09:58:34.143Z,5.74
2022-11-16T10:01:44.277Z,5.69
2022-11-16T10:04:58.185Z,5.71
2022-11-16T10:08:11.312Z,5.71
2022-11-16T10:11:39.209Z,5.81
2022-11-16T10:15:15.632Z,5.75
2022-11-16T10:18:39.990Z,5.78
2022-11-16T10:21:53.168Z,5.90
2022-11-16T10:24:59.519Z,5.98
2022-11-16T10:28:23.710Z,5.88
2022-11-16T10:31:45.929Z,5.94
2022-11-16T10:34:54.927Z,5.95
2022-11-16T10:38:00.439Z,5.85
2022-11-16T10:41:16.064Z,5.84
2022-11-16T10:44:31.658Z,5.88
2022-11-16T10:47:42.640Z,5.95
2022-11-16T10:50:49.389Z,5.93
2022-11-16T10:53:55.734Z,6.11
2022-11-16T10:57:06.161Z,6.01
2022-11-16T11:00:22.025Z,5.95
2022-11-16T11:03:33.043Z,5.98
2022-11-16T11:06:40.321Z,5.93
2022-11-16T11:09:45.145Z,5.76
2022-11-16T11:13:24.449Z,5.91
2022-11-16T11:16:30.818Z,5.93
2022-11-16T11:19:35.569Z,5.96
2022-11-16T11:22:45.329Z,5.90
2022-11-16T11:25:53.969Z,5.93
2022-11-16T11:28:58.969Z,5.96
2022-11-16T11:32:07.903Z,6.02
2022-11-16T11:35:24.891Z,6.00
2022-11-16T11:38:30.204Z,5.81
2022-11-16T11:41:38.144Z,6.04
2022-11-16T11:44:50.297Z,5.88
2022-11-16T11:48:01.604Z,5.89
2022-11-16T11:51:15.020Z,5.76
2022-11-16T11:54:24.069Z,5.75
2022-11-16T11:57:28.969Z,5.83
2022-11-16T12:00:42.170Z,5.76
2022-11-16T12:04:40.421Z,5.94
2022-11-16T12:08:05.672Z,5.76
2022-11-16T12:11:19.512Z,5.95
2022-11-16T12:14:52.963Z,5.91
2022-11-16T12:18:11.787Z,5.94
2022-11-16T12:21:23.518Z,5.95
2022-11-16T12:24:44.438Z,5.91
2022-11-16T12:27:58.700Z,5.88
2022-11-16T12:31:35.602Z,5.85
2022-11-16T12:34:55.472Z,5.89
2022-11-16T12:38:11.950Z,5.96
2022-11-16T12:41:46.104Z,5.96
2022-11-16T12:45:34.094Z,5.95
2022-11-16T12:49:02.670Z,6.08
2022-11-16T12:52:21.990Z,6.10
2022-11-16T12:55:34.690Z,6.02
2022-11-16T12:58:55.516Z,5.99
2022-11-16T13:02:16.708Z,6.11
2022-11-16T13:05:25.318Z,6.07
2022-11-16T13:08:44.933Z,6.08
2022-11-16T13:11:54.313Z,6.04
2022-11-16T13:15:00.638Z,6.06
2022-11-16T13:18:08.497Z,5.93
2022-11-16T13:21:23.349Z,5.94
2022-11-16T13:24:41.457Z,5.93
2022-11-16T13:27:50.878Z,5.93
2022-11-16T13:31:04.710Z,5.99
2022-11-16T13:34:17.012Z,5.99
2022-11-16T13:37:47.991Z,6.06
2022-11-16T13:40:52.585Z,5.99
2022-11-16T13:43:59.177Z,5.98
2022-11-16T13:47:05.946Z,5.94
2022-11-16T13:50:21.750Z,5.94
2022-11-16T13:56:59.078Z,5.83
2022-11-16T14:00:21.742Z,5.85
2022-11-16T14:03:39.525Z,5.92
2022-11-16T14:07:02.068Z,5.81
2022-11-16T14:10:08.098Z,5.87
2022-11-16T14:13:40.493Z,5.94
2022-11-16T14:16:50.712Z,5.95
2022-11-16T14:19:56.058Z,5.91
2022-11-16T14:23:17.906Z,5.93
2022-11-16T14:26:28.339Z,5.77
2022-11-16T14:29:48.477Z,5.86
2022-11-16T14:32:56.419Z,5.84
2022-11-16T14:36:03.501Z,5.76
2022-11-16T14:39:31.688Z,5.87
2022-11-16T14:43:01.831Z,5.90
2022-11-16T14:46:32.034Z,5.81
2022-11-16T14:49:39.401Z,5.82
2022-11-16T14:52:48.433Z,5.86
2022-11-16T14:55:53.225Z,5.92
2022-11-16T14:59:00.288Z,5.85
2022-11-16T15:02:18.303Z,5.83
2022-11-16T15:05:29.910Z,5.87
2022-11-16T15:08:39.074Z,5.78
2022-11-16T15:12:05.263Z,5.86
2022-11-16T15:15:16.146Z,5.77
2022-11-16T15:18:23.987Z,5.80
2022-11-16T15:21:30.945Z,5.76
2022-11-16T15:24:36.967Z,5.85
2022-11-16T15:27:44.187Z,5.90
2022-11-16T15:30:52.275Z,5.83
2022-11-16T15:33:57.133Z,5.71
2022-11-16T15:37:03.245Z,5.68
2022-11-16T15:40:12.284Z,5.63
2022-11-16T15:43:17.166Z,5.67
2022-11-16T15:46:22.381Z,5.78
2022-11-16T15:49:31.184Z,5.69
2022-11-16T15:52:50.188Z,5.75
2022-11-16T15:55:54.870Z,5.65
2022-11-16T15:59:02.230Z,5.62
2022-11-16T16:02:15.305Z,5.63
2022-11-16T16:05:23.952Z,5.70
2022-11-16T16:08:35.754Z,5.68
2022-11-16T16:11:40.596Z,5.62
2022-11-16T16:14:46.190Z,5.62
2022-11-16T16:17:51.304Z,5.62
2022-11-16T16:20:55.993Z,5.44
2022-11-16T16:24:02.136Z,5.57
2022-11-16T16:27:16.789Z,5.62
2022-11-16T16:30:22.109Z,5.57
2022-11-16T16:33:31.658Z,5.50
2022-11-16T16:36:41.283Z,5.41
2022-11-16T16:39:52.214Z,5.28
2022-11-16T16:42:59.462Z,5.39
2022-11-16T16:46:06.834Z,5.40
2022-11-16T16:49:13.473Z,5.46
2022-11-16T16:52:21.151Z,5.41
2022-11-16T16:55:32.861Z,5.36
2022-11-16T16:58:42.229Z,5.38
2022-11-16T17:01:48.877Z,5.42
2022-11-16T17:04:55.766Z,5.51
2022-11-16T17:08:03.209Z,5.53
2022-11-16T17:11:12.369Z,5.51
2022-11-16T17:14:21.505Z,5.31
2022-11-16T17:17:28.882Z,5.34
2022-11-16T17:20:36.922Z,5.40
2022-11-16T17:23:44.208Z,5.26
2022-11-16T17:26:52.366Z,5.33
2022-11-16T17:29:59.610Z,5.40
2022-11-16T17:33:06.618Z,5.44
2022-11-16T17:36:14.601Z,5.41
2022-11-16T17:39:21.579Z,5.36
2022-11-16T17:42:31.978Z,5.42
2022-11-16T17:45:41.453Z,5.42
2022-11-16T17:48:49.412Z,5.46
2022-11-16T17:51:56.287Z,5.39
2022-11-16T17:55:07.022Z,5.45
2022-11-16T17:58:18.489Z,5.51
2022-11-16T18:01:25.744Z,5.48
2022-11-16T18:04:32.419Z,5.39
2022-11-16T18:07:40.447Z,5.49
2022-11-16T18:10:47.210Z,5.31
2022-11-16T18:13:57.305Z,5.36
2022-11-16T18:17:03.933Z,5.39
2022-11-16T18:20:12.762Z,5.40
2022-11-16T18:23:19.623Z,5.32
2022-11-16T18:26:26.603Z,5.32
2022-11-16T18:29:36.300Z,5.49
2022-11-16T18:32:42.745Z,5.45
2022-11-16T18:35:48.674Z,5.33
2022-11-16T18:38:54.205Z,5.29
2022-11-16T18:41:59.643Z,5.32
2022-11-16T18:45:07.533Z,5.29
2022-11-16T18:48:14.602Z,5.32
2022-11-16T18:51:19.989Z,5.34
2022-11-16T18:54:24.843Z,5.35
2022-11-16T18:57:29.593Z,5.31
2022-11-16T19:00:35.921Z,5.31
2022-11-16T19:03:41.011Z,5.36
2022-11-16T19:06:45.839Z,5.25
2022-11-16T19:09:50.615Z,5.30
2022-11-16T19:12:55.478Z,5.29
2022-11-16T19:16:01.602Z,5.35
2022-11-16T19:19:06.485Z,5.33
2022-11-16T19:22:13.193Z,5.34
2022-11-16T19:25:18.169Z,5.33
2022-11-16T19:28:22.773Z,5.29
2022-11-16T19:31:30.762Z,5.29
2022-11-16T19:34:35.450Z,5.43
2022-11-16T19:37:40.413Z,5.21
2022-11-16T19:40:45.056Z,5.30
2022-11-16T19:43:51.319Z,5.29
2022-11-16T19:46:57.337Z,5.23
2022-11-16T19:50:02.194Z,5.15
2022-11-16T19:53:06.864Z,5.09
2022-11-16T19:56:14.157Z,5.21
2022-11-16T19:59:18.853Z,5.26
2022-11-16T20:02:25.121Z,5.13
2022-11-16T20:05:30.465Z,4.98
2022-11-16T20:08:35.530Z,4.95
2022-11-16T20:11:41.823Z,4.95
2022-11-16T20:14:46.767Z,4.95
2022-11-16T20:17:53.260Z,4.99
2022-11-16T20:21:02.444Z,5.16
2022-11-16T20:24:09.903Z,5.15
2022-11-16T20:27:14.770Z,5.10
2022-11-16T20:30:19.610Z,5.14
2022-11-16T20:33:26.018Z,5.09
2022-11-16T20:36:32.313Z,5.16
2022-11-16T20:39:37.164Z,5.06
2022-11-16T20:42:41.845Z,5.03
2022-11-16T20:45:48.933Z,5.04
2022-11-16T20:48:57.089Z,5.00
2022-11-16T20:52:01.988Z,4.90
2022-11-16T20:55:07.799Z,4.94
2022-11-16T20:58:13.292Z,5.03
2022-11-16T21:01:20.132Z,4.83
2022-11-16T21:04:27.300Z,4.90
2022-11-16T21:07:32.133Z,4.88
2022-11-16T21:10:38.104Z,4.93
2022-11-16T21:14:00.711Z,4.88
2022-11-16T21:17:05.577Z,4.85
2022-11-16T21:20:27.082Z,4.85
2022-11-16T21:23:34.797Z,4.86
2022-11-16T21:26:40.151Z,4.89
2022-11-16T21:29:44.969Z,4.88
2022-11-16T21:32:49.560Z,4.80
2022-11-16T21:35:56.257Z,4.88
2022-11-16T21:39:01.416Z,4.91
2022-11-16T21:42:06.883Z,4.91
2022-11-16T21:45:13.407Z,4.87
2022-11-16T21:48:18.434Z,4.96
2022-11-16T21:51:26.820Z,4.84
2022-11-16T21:54:47.343Z,4.77
2022-11-16T21:57:51.957Z,4.56
2022-11-16T22:00:57.561Z,4.60
2022-11-16T22:04:21.295Z,4.59
2022-11-16T22:07:37.827Z,4.63
2022-11-16T22:10:43.603Z,4.43
2022-11-16T22:13:48.958Z,4.37
2022-11-16T22:16:53.568Z,4.44
2022-11-16T22:19:58.385Z,4.47
2022-11-16T22:23:04.441Z,4.53
2022-11-16T22:26:12.293Z,4.37
2022-11-16T22:29:17.440Z,4.36
2022-11-16T22:32:22.269Z,4.27
2022-11-16T22:35:27.027Z,4.21
2022-11-16T22:38:33.261Z,4.25
2022-11-16T22:41:38.006Z,4.18
2022-11-16T22:44:42.795Z,4.24
2022-11-16T22:47:50.775Z,3.92
2022-11-16T22:51:04.700Z,3.85
2022-11-16T22:54:15.439Z,3.96
2022-11-16T22:57:20.268Z,4.06
2022-11-16T23:00:24.956Z,4.12
2022-11-16T23:03:29.967Z,4.03
2022-11-16T23:06:34.980Z,3.98
2022-11-16T23:09:41.194Z,4.11
2022-11-16T23:13:03.446Z,4.02
2022-11-16T23:16:08.939Z,4.09
2022-11-16T23:19:33.767Z,4.10
2022-11-16T23:22:56.092Z,3.92
2022-11-16T23:26:19.493Z,3.91
2022-11-16T23:29:24.644Z,3.96
2022-11-16T23:32:29.999Z,3.91
2022-11-16T23:35:34.892Z,4.00
2022-11-16T23:38:39.589Z,4.04
2022-11-16T23:42:03.489Z,3.81
2022-11-16T23:45:08.882Z,3.84
2022-11-16T23:48:16.747Z,3.89
2022-11-16T23:51:23.326Z,3.88
2022-11-16T23:54:28.452Z,3.91
2022-11-16T23:57:34.376Z,3.75
